Time;durP1;ratioP1;P1;durP2;ratioP2;P2;SDS_P1;SDS_P2;PMS_P1;PMS_P2;Temp;Humidity;BMP_temperature;BMP_pressure;BME280_temperature;BME280_humidity;BME280_pressure;Samples;Min_cycle;Max_cycle;Signal;HPM_P1;HPM_P2
2022/07/13 00:04:56;;;;;;;0.40;0.40;;;;;;;19.60;58.97;97377.34;10380363;28;20277;-20
2022/07/13 00:09:58;;;;;;;0.53;0.53;;;;;;;19.59;59.03;97383.28;10372791;28;20065;-20
2022/07/13 00:14:58;;;;;;;0.73;0.73;;;;;;;19.57;58.92;97369.69;10376533;28;20163;-20
2022/07/13 00:19:58;;;;;;;0.60;0.60;;;;;;;19.85;57.41;97369.03;10378556;28;20542;-20
2022/07/13 00:24:59;;;;;;;0.77;0.67;;;;;;;20.03;56.64;97364.00;10373465;28;20484;-20
2022/07/13 00:29:59;;;;;;;0.77;0.70;;;;;;;19.89;57.79;97361.41;10375321;28;20451;-21
2022/07/13 00:35:00;;;;;;;1.53;0.73;;;;;;;19.77;58.24;97360.50;10374636;28;20034;-21
2022/07/13 00:40:00;;;;;;;0.68;0.68;;;;;;;19.67;58.52;97359.59;10366349;28;20057;-20
2022/07/13 00:45:01;;;;;;;1.23;0.75;;;;;;;19.64;58.76;97348.56;10378598;28;20079;-20
2022/07/13 00:50:07;;;;;;;0.47;0.40;;;;;;;19.60;58.70;97346.88;10372894;28;20048;-20
2022/07/13 00:55:09;;;;;;;0.60;0.55;;;;;;;19.58;58.86;97346.00;10368022;28;20042;-20
2022/07/13 01:00:12;;;;;;;1.73;0.60;;;;;;;19.60;58.80;97357.03;10371671;28;20029;-20
2022/07/13 01:05:14;;;;;;;0.80;0.50;;;;;;;19.58;58.78;97364.63;10368176;28;20025;-20
2022/07/13 01:10:14;;;;;;;0.65;0.65;;;;;;;19.57;58.91;97347.69;10371370;28;20064;-21
2022/07/13 01:15:15;;;;;;;0.47;0.40;;;;;;;19.61;58.73;97348.56;10368454;28;20088;-20
2022/07/13 01:20:15;;;;;;;1.35;0.90;;;;;;;19.93;56.35;97341.94;10369703;28;20372;-20
2022/07/13 01:25:18;;;;;;;1.52;0.70;;;;;;;20.02;56.09;97339.44;10368399;28;20030;-20
2022/07/13 01:30:19;;;;;;;0.43;0.43;;;;;;;19.86;57.65;97340.22;10371774;28;20057;-20
2022/07/13 01:35:22;;;;;;;0.70;0.40;;;;;;;19.76;58.04;97343.56;10371491;28;20170;-20
2022/07/13 01:40:23;;;;;;;0.63;0.50;;;;;;;19.68;58.48;97335.06;10371534;28;20595;-20
2022/07/13 01:45:23;;;;;;;0.40;0.40;;;;;;;19.64;58.53;97324.03;10369383;28;20079;-20
2022/07/13 01:50:27;;;;;;;0.40;0.40;;;;;;;19.63;58.51;97316.38;10368911;28;20034;-20
2022/07/13 01:55:27;;;;;;;0.60;0.60;;;;;;;19.61;58.65;97320.63;10377189;28;20030;-20
2022/07/13 02:00:29;;;;;;;0.50;0.50;;;;;;;19.60;58.49;97321.47;10374676;28;20488;-20
2022/07/13 02:05:29;;;;;;;0.80;0.60;;;;;;;19.60;58.43;97313.84;10368707;28;20032;-20
2022/07/13 02:10:35;;;;;;;0.40;0.40;;;;;;;19.60;58.65;97316.38;10367408;28;20183;-20
2022/07/13 02:15:36;;;;;;;0.60;0.50;;;;;;;19.65;58.11;97300.31;10378391;28;20409;-20
2022/07/13 02:20:38;;;;;;;1.33;0.70;;;;;;;19.95;56.23;97284.34;10383057;28;20503;-20
2022/07/13 02:25:39;;;;;;;0.68;0.50;;;;;;;19.95;56.12;97281.81;10386990;28;20129;-20
2022/07/13 02:30:39;;;;;;;0.80;0.50;;;;;;;19.83;57.53;97284.31;10382529;28;20030;-20
2022/07/13 02:35:40;;;;;;;0.85;0.50;;;;;;;19.73;58.14;97278.34;10379744;28;20312;-20
2022/07/13 02:40:40;;;;;;;0.83;0.40;;;;;;;19.67;58.19;97278.31;10383156;28;20493;-20
2022/07/13 02:45:41;;;;;;;0.50;0.50;;;;;;;19.63;58.28;97284.22;10390266;28;20448;-20
2022/07/13 02:50:41;;;;;;;1.08;0.63;;;;;;;19.61;58.42;97274.91;10383535;28;20037;-20
2022/07/13 02:55:43;;;;;;;0.30;0.30;;;;;;;19.62;58.16;97271.50;10375930;28;20065;-20
2022/07/13 03:00:44;;;;;;;0.43;0.40;;;;;;;19.61;58.65;97267.28;10379247;28;20029;-20
2022/07/13 03:05:45;;;;;;;0.55;0.40;;;;;;;19.59;58.62;97276.59;10381051;28;20034;-20
2022/07/13 03:10:45;;;;;;;0.60;0.30;;;;;;;19.58;58.26;97273.19;10386960;28;20041;-20
2022/07/13 03:15:46;;;;;;;0.85;0.70;;;;;;;19.79;56.26;97268.22;10377669;28;20056;-20
2022/07/13 03:20:47;;;;;;;0.88;0.60;;;;;;;19.96;55.34;97275.88;10377799;28;20030;-20
2022/07/13 03:25:47;;;;;;;1.27;0.50;;;;;;;19.93;56.31;97270.78;10371820;28;20030;-20
2022/07/13 03:30:48;;;;;;;1.00;0.55;;;;;;;19.80;57.34;97267.34;10377818;28;20056;-20
2022/07/13 03:35:51;;;;;;;0.45;0.40;;;;;;;19.71;57.95;97259.69;10373084;28;20345;-20
2022/07/13 03:40:52;;;;;;;0.70;0.55;;;;;;;19.66;58.08;97268.16;10376866;28;20026;-20
2022/07/13 03:45:53;;;;;;;1.63;0.57;;;;;;;19.68;56.68;97263.91;10379331;28;20022;-19
2022/07/13 03:50:54;;;;;;;0.43;0.30;;;;;;;18.95;59.35;97266.88;10373048;28;20129;-19
2022/07/13 03:55:55;;;;;;;3.05;0.90;;;;;;;18.53;60.04;97261.47;10369010;28;20038;-20
2022/07/13 04:00:56;;;;;;;1.52;0.55;;;;;;;18.51;59.54;97263.16;10370415;28;20477;-20
2022/07/13 04:05:57;;;;;;;2.53;0.47;;;;;;;18.39;59.49;97247.81;10376068;28;20473;-21
2022/07/13 04:10:58;;;;;;;5.57;0.68;;;;;;;18.41;59.42;97262.22;10371064;28;20320;-20
2022/07/13 04:15:58;;;;;;;0.55;0.30;;;;;;;18.44;59.15;97261.41;10356342;28;20030;-21
2022/07/13 04:21:02;;;;;;;1.35;0.60;;;;;;;18.41;59.35;97261.38;10331701;28;20469;-21
2022/07/13 04:26:03;;;;;;;1.42;0.50;;;;;;;18.37;59.34;97259.63;10370572;28;20660;-21
2022/07/13 04:31:04;;;;;;;1.58;0.70;;;;;;;18.30;59.59;97262.94;10374804;28;20084;-21
2022/07/13 04:36:08;;;;;;;0.70;0.50;;;;;;;18.31;59.89;97257.03;10376226;28;20523;-21
2022/07/13 04:41:11;;;;;;;1.60;0.82;;;;;;;18.34;59.64;97249.47;10379343;28;20079;-21
2022/07/13 04:46:13;;;;;;;1.35;0.43;;;;;;;18.48;59.04;97236.06;10375642;28;20034;-21
2022/07/13 04:51:13;;;;;;;3.47;0.70;;;;;;;18.58;58.36;97227.69;10378884;28;20033;-21
2022/07/13 04:56:17;;;;;;;1.13;0.90;;;;;;;18.69;58.43;97225.25;10366041;28;20612;-22
2022/07/13 05:01:18;;;;;;;1.88;0.43;;;;;;;18.75;58.60;97222.75;10377682;28;20061;-21
2022/07/13 05:06:18;;;;;;;0.80;0.60;;;;;;;18.67;58.05;97199.88;10367358;28;20947;-21
2022/07/13 05:11:18;;;;;;;1.77;0.77;;;;;;;18.72;58.38;97204.97;10370033;28;20029;-21
2022/07/13 05:16:20;;;;;;;0.65;0.60;;;;;;;18.84;58.39;97207.59;10372263;28;20029;-21
2022/07/13 05:21:21;;;;;;;8.23;1.23;;;;;;;18.83;57.90;97201.66;10371095;28;20526;-20
2022/07/13 05:26:22;;;;;;;0.90;0.50;;;;;;;18.65;59.79;97210.84;10369534;28;20033;-21
2022/07/13 05:31:23;;;;;;;2.28;0.77;;;;;;;18.89;59.11;97222.00;10367847;28;20034;-21
2022/07/13 05:36:23;;;;;;;1.63;0.60;;;;;;;18.89;59.10;97223.69;10365553;28;20058;-21
2022/07/13 05:41:24;;;;;;;3.95;1.02;;;;;;;18.98;58.75;97222.06;10370279;28;20029;-21
2022/07/13 05:46:25;;;;;;;2.70;0.80;;;;;;;18.99;59.42;97243.22;10366092;28;20507;-21
2022/07/13 05:51:26;;;;;;;3.42;0.82;;;;;;;19.10;59.45;97247.50;10297806;28;20419;-21
2022/07/13 05:56:27;;;;;;;2.70;0.60;;;;;;;19.30;58.55;97260.34;10307944;28;20037;-21
2022/07/13 06:01:27;;;;;;;1.90;0.63;;;;;;;19.35;58.35;97249.38;10303140;28;20119;-21
2022/07/13 06:06:27;;;;;;;0.90;0.50;;;;;;;19.37;58.10;97237.56;10303664;28;20405;-21
2022/07/13 06:11:28;;;;;;;5.68;0.90;;;;;;;19.41;58.09;97235.88;10304986;28;20403;-21
2022/07/13 06:16:28;;;;;;;1.07;0.97;;;;;;;19.61;58.07;97236.78;10307037;28;20084;-21
2022/07/13 06:21:29;;;;;;;1.90;0.80;;;;;;;19.72;57.99;97246.16;10298862;28;20288;-21
2022/07/13 06:26:30;;;;;;;1.45;0.80;;;;;;;19.66;57.57;97240.22;10358572;28;20284;-21
2022/07/13 06:31:30;;;;;;;1.45;0.63;;;;;;;19.57;57.99;97250.31;10373288;28;20225;-21
2022/07/13 06:36:30;;;;;;;2.83;0.85;;;;;;;19.50;58.03;97238.44;10372764;28;20033;-21
2022/07/13 06:41:31;;;;;;;2.27;0.80;;;;;;;19.49;57.67;97226.59;10374483;28;20029;-21
2022/07/13 06:46:31;;;;;;;1.77;0.60;;;;;;;19.49;58.10;97232.50;10366770;28;20034;-21
2022/07/13 06:51:32;;;;;;;2.25;0.63;;;;;;;19.49;57.86;97234.22;10375593;28;20026;-21
2022/07/13 06:56:33;;;;;;;2.33;0.68;;;;;;;19.50;58.01;97248.63;10374431;28;20042;-21
2022/07/13 07:01:33;;;;;;;1.30;0.47;;;;;;;19.42;58.19;97235.88;10373616;28;20451;-21
2022/07/13 07:06:34;;;;;;;1.02;0.60;;;;;;;19.50;58.26;97248.63;10375970;28;20480;-21
2022/07/13 07:11:35;;;;;;;1.33;0.70;;;;;;;19.50;58.09;97253.69;10376242;28;20038;-23
2022/07/13 07:16:36;;;;;;;2.13;0.93;;;;;;;19.73;58.61;97255.47;10368554;28;20039;-21
2022/07/13 07:21:37;;;;;;;1.55;1.15;;;;;;;19.83;58.25;97252.09;10379827;28;20033;-21
2022/07/13 07:26:37;;;;;;;0.95;0.57;;;;;;;19.73;57.75;97246.97;10381756;28;20487;-21
2022/07/13 07:31:38;;;;;;;0.53;0.37;;;;;;;19.64;57.75;97241.88;10374651;28;20033;-21
2022/07/13 07:36:38;;;;;;;1.43;0.60;;;;;;;19.58;57.92;97246.97;10379452;28;20201;-21
2022/07/13 07:41:39;;;;;;;1.37;0.70;;;;;;;19.56;58.15;97253.69;10382737;28;20040;-21
2022/07/13 07:46:41;;;;;;;0.55;0.55;;;;;;;19.55;58.07;97241.84;10370560;28;20048;-21
2022/07/13 07:51:41;;;;;;;0.55;0.38;;;;;;;19.50;58.21;97218.13;10379901;28;20128;-21
2022/07/13 07:56:41;;;;;;;1.00;0.87;;;;;;;19.55;58.28;97222.38;10380304;28;20034;-21
2022/07/13 08:01:43;;;;;;;1.77;0.50;;;;;;;19.53;58.23;97211.38;10376903;28;20308;-22
2022/07/13 08:06:43;;;;;;;1.00;0.40;;;;;;;19.55;58.08;97218.97;10377450;28;20311;-21
2022/07/13 08:11:44;;;;;;;1.35;0.60;;;;;;;19.60;58.60;97223.22;10376495;28;20046;-21
2022/07/13 08:16:44;;;;;;;1.30;0.60;;;;;;;19.82;58.47;97221.59;10373475;28;20068;-21
2022/07/13 08:21:44;;;;;;;4.53;0.80;;;;;;;19.91;57.79;97216.56;10371947;28;20041;-21
2022/07/13 08:26:45;;;;;;;0.40;0.40;;;;;;;19.80;57.49;97213.13;10367178;28;20051;-21
2022/07/13 08:31:45;;;;;;;0.40;0.38;;;;;;;19.68;57.87;97220.72;10373083;28;20046;-21
2022/07/13 08:42:06;;;;;;;0.50;0.50;;;;;;;19.60;57.82;97222.41;10372041;28;20037;-21
2022/07/13 08:47:09;;;;;;;0.47;0.47;;;;;;;19.60;58.24;97215.59;10369832;28;20113;-22
2022/07/13 08:52:10;;;;;;;0.65;0.40;;;;;;;19.58;58.37;97214.75;10386069;28;20037;-20
2022/07/13 08:57:10;;;;;;;0.98;0.43;;;;;;;19.60;58.38;97219.84;10372364;28;20057;-21
2022/07/13 09:02:10;;;;;;;0.43;0.40;;;;;;;19.58;58.32;97227.47;10368065;28;20083;-21
2022/07/13 09:07:11;;;;;;;0.30;0.30;;;;;;;19.60;58.32;97230.03;10368908;28;20404;-21
2022/07/13 09:12:19;;;;;;;1.13;0.60;;;;;;;19.67;58.85;97232.56;10371425;28;20073;-20
2022/07/13 09:17:43;;;;;;;0.85;0.50;;;;;;;19.82;58.61;97216.53;10369068;28;20026;-20
2022/07/13 09:22:46;;;;;;;1.02;0.60;;;;;;;19.92;58.04;97224.19;10368933;28;20037;-21
2022/07/13 09:27:50;;;;;;;0.70;0.43;;;;;;;19.77;57.81;97225.84;10377508;28;20488;-21
2022/07/13 09:32:52;;;;;;;0.32;0.28;;;;;;;19.72;58.02;97235.13;10376742;28;20052;-21
2022/07/13 09:37:52;;;;;;;0.38;0.38;;;;;;;19.60;58.18;97219.84;10376671;28;20116;-20
2022/07/13 09:46:08;;;;;;;1.67;0.53;;;;;;;19.65;58.12;97233.41;10377594;28;20546;-21
2022/07/13 09:48:14;;;;;;;1.15;0.50;;;;;;;19.64;58.35;97234.25;10368160;28;20033;-20
2022/07/13 09:53:28;;;;;;;0.90;0.45;;;;;;;19.63;58.36;97232.56;10376639;28;20049;-21
2022/07/13 09:58:31;;;;;;;0.47;0.47;;;;;;;19.63;58.56;97237.63;10374618;28;20080;-21
2022/07/13 10:03:32;;;;;;;0.73;0.50;;;;;;;19.63;58.38;97230.03;10374370;28;20112;-20
2022/07/13 10:08:33;;;;;;;0.73;0.40;;;;;;;19.61;58.30;97224.09;10372215;28;20036;-21
2022/07/13 10:13:34;;;;;;;1.35;0.47;;;;;;;19.81;58.25;97219.91;10369097;28;20044;-20
2022/07/13 10:18:39;;;;;;;1.33;0.60;;;;;;;19.92;58.64;97213.19;10376488;28;20495;-21
2022/07/13 10:23:40;;;;;;;0.43;0.35;;;;;;;19.90;57.63;97212.31;10379442;28;20065;-20
2022/07/13 10:28:41;;;;;;;0.40;0.40;;;;;;;19.80;58.03;97215.69;10371276;28;20088;-19
2022/07/13 10:33:43;;;;;;;0.50;0.50;;;;;;;19.76;58.06;97221.59;10377413;28;20517;-21
2022/07/13 10:39:12;;;;;;;1.40;0.40;;;;;;;19.72;58.24;97212.25;10375134;28;20026;-21
2022/07/13 10:44:37;;;;;;;1.95;0.77;;;;;;;19.69;58.25;97214.81;10375286;28;20060;-20
2022/07/13 10:49:47;;;;;;;2.15;0.47;;;;;;;19.67;58.42;97224.13;10378759;28;20033;-21
2022/07/13 10:55:03;;;;;;;0.28;0.28;;;;;;;19.67;57.98;97219.03;10368341;28;20049;-21
2022/07/13 11:05:25;;;;;;;1.52;0.30;;;;;;;19.66;58.21;97212.28;10384702;28;20068;-20
2022/07/13 11:10:33;;;;;;;0.60;0.50;;;;;;;19.74;57.93;97220.72;10372762;28;20034;-19
2022/07/13 11:15:52;;;;;;;0.80;0.50;;;;;;;19.96;57.33;97209.78;10370012;28;20045;-20
2022/07/13 11:21:16;;;;;;;0.65;0.60;;;;;;;20.02;57.13;97205.56;10377261;28;20092;-20
2022/07/13 11:26:22;;;;;;;0.65;0.30;;;;;;;19.90;57.52;97209.75;10377354;28;20026;-27
2022/07/13 11:31:23;;;;;;;3.53;0.75;;;;;;;19.80;57.70;97208.06;10367853;28;20539;-20
2022/07/13 11:36:24;;;;;;;1.20;0.50;;;;;;;19.74;57.92;97200.41;10367645;28;20050;-21
2022/07/13 11:41:25;;;;;;;2.15;0.90;;;;;;;19.75;58.05;97197.88;10371268;28;20034;-21
2022/07/13 11:46:27;;;;;;;1.60;0.97;;;;;;;19.72;58.08;97204.66;10363252;28;20092;-20
2022/07/13 11:51:28;;;;;;;5.57;1.40;;;;;;;19.73;58.67;97201.25;10371185;28;20292;-20
2022/07/13 11:56:28;;;;;;;1.35;0.70;;;;;;;19.74;58.12;97193.66;10367613;28;20026;-21
2022/07/13 12:01:29;;;;;;;0.95;0.43;;;;;;;19.72;58.24;97184.31;10359927;28;20447;-20
2022/07/13 12:06:29;;;;;;;0.52;0.40;;;;;;;19.71;58.20;97180.94;10356848;28;20049;-21
2022/07/13 12:11:30;;;;;;;2.53;0.70;;;;;;;19.88;57.65;97181.84;10355951;28;20026;-21
2022/07/13 12:16:31;;;;;;;1.42;0.70;;;;;;;20.06;57.75;97171.72;10362017;28;20042;-21
2022/07/13 12:21:32;;;;;;;1.23;0.52;;;;;;;20.08;57.30;97169.19;10366508;28;20089;-20
2022/07/13 12:26:33;;;;;;;1.27;0.45;;;;;;;19.92;57.73;97163.19;10360296;28;20037;-20
2022/07/13 12:31:33;;;;;;;1.27;0.32;;;;;;;19.83;57.99;97158.09;10369643;28;20029;-21
2022/07/13 12:36:37;;;;;;;3.00;0.50;;;;;;;19.80;58.20;97152.16;10368976;28;20034;-20
2022/07/13 12:41:41;;;;;;;1.48;0.45;;;;;;;19.76;58.02;97147.94;10368028;28;20302;-21
2022/07/13 12:46:50;;;;;;;1.17;0.68;;;;;;;19.75;58.15;97153.84;10362729;28;20477;-20
2022/07/13 12:51:52;;;;;;;0.30;0.30;;;;;;;19.75;58.24;97149.59;10358291;28;20121;-20
2022/07/13 12:56:53;;;;;;;0.40;0.40;;;;;;;19.74;58.34;97144.50;10356515;28;20035;-21
2022/07/13 13:01:53;;;;;;;0.83;0.50;;;;;;;19.75;58.28;97138.63;10350435;28;20035;-21
2022/07/13 13:06:53;;;;;;;0.90;0.50;;;;;;;19.74;58.37;97131.81;10364895;28;20038;-21
2022/07/13 13:11:54;;;;;;;2.80;0.70;;;;;;;19.99;58.16;97138.63;10359612;28;20129;-20
2022/07/13 13:16:54;;;;;;;1.47;0.63;;;;;;;20.12;57.66;97130.19;10358380;28;20041;-20
2022/07/13 13:21:55;;;;;;;1.60;0.67;;;;;;;20.04;57.52;97129.31;10364337;28;20301;-21
2022/07/13 13:26:55;;;;;;;0.65;0.47;;;;;;;19.90;57.91;97124.22;10357218;28;20052;-21
2022/07/13 13:31:56;;;;;;;0.37;0.37;;;;;;;19.85;58.02;97120.81;10366811;28;20040;-23
2022/07/13 13:36:57;;;;;;;0.93;0.45;;;;;;;19.81;58.21;97113.19;10352850;28;20037;-20
2022/07/13 13:41:57;;;;;;;1.70;0.30;;;;;;;19.79;58.26;97114.91;10355644;28;20042;-20
2022/07/13 13:46:57;;;;;;;0.47;0.47;;;;;;;19.80;58.32;97103.88;10350278;28;20351;-21
2022/07/13 13:51:58;;;;;;;1.03;0.40;;;;;;;19.79;58.54;97114.91;10356504;28;20117;-20
2022/07/13 13:56:58;;;;;;;0.40;0.40;;;;;;;19.78;58.47;97103.03;10363255;28;20088;-21
2022/07/13 14:01:58;;;;;;;0.63;0.30;;;;;;;19.74;58.34;97091.16;10353523;28;20042;-20
2022/07/13 14:06:59;;;;;;;0.80;0.50;;;;;;;19.88;58.30;97094.56;10364765;28;20025;-21
2022/07/13 14:11:59;;;;;;;0.77;0.60;;;;;;;20.09;57.96;97097.16;10347418;28;20034;-20
2022/07/13 14:17:00;;;;;;;0.75;0.47;;;;;;;20.12;57.45;97084.44;10359299;28;20783;-20
2022/07/13 14:22:00;;;;;;;0.53;0.50;;;;;;;20.03;57.62;97094.56;10354189;28;20025;-20
2022/07/13 14:27:02;;;;;;;2.23;0.50;;;;;;;19.92;58.08;97093.75;10360740;28;20776;-21
2022/07/13 14:32:03;;;;;;;1.65;0.50;;;;;;;19.87;58.11;97090.34;10371333;28;20080;-20
2022/07/13 14:37:06;;;;;;;0.28;0.28;;;;;;;19.83;58.19;97096.28;10367548;28;20030;-20
2022/07/13 14:42:07;;;;;;;0.50;0.45;;;;;;;19.81;58.61;97087.78;10358330;28;20453;-21
2022/07/13 14:47:08;;;;;;;0.40;0.40;;;;;;;19.82;58.25;97099.63;10353016;28;20030;-21
2022/07/13 14:52:08;;;;;;;0.32;0.30;;;;;;;19.81;58.35;97092.88;10358638;28;20742;-21
2022/07/13 14:57:08;;;;;;;0.93;0.50;;;;;;;19.81;58.33;97086.09;10358375;28;20027;-20
2022/07/13 15:02:09;;;;;;;0.40;0.40;;;;;;;19.78;58.43;97080.16;10369072;28;20296;-21
2022/07/13 15:07:10;;;;;;;0.50;0.47;;;;;;;19.99;57.91;97075.94;10356935;28;20369;-21
2022/07/13 15:12:10;;;;;;;0.60;0.40;;;;;;;20.17;58.14;97083.59;10359681;28;20045;-21
2022/07/13 15:17:10;;;;;;;1.97;0.50;;;;;;;20.14;57.56;97072.56;10365913;28;20029;-21
2022/07/13 15:22:11;;;;;;;3.70;0.50;;;;;;;19.98;57.90;97070.84;10372086;28;20029;-21
2022/07/13 15:27:11;;;;;;;1.87;0.40;;;;;;;19.91;57.95;97080.19;10368628;28;20088;-20
2022/07/13 15:32:11;;;;;;;0.27;0.20;;;;;;;19.87;58.35;97067.47;10374948;28;20040;-20
2022/07/13 15:37:12;;;;;;;0.60;0.50;;;;;;;19.85;58.27;97077.63;10371611;28;20374;-20
2022/07/13 15:42:12;;;;;;;0.43;0.40;;;;;;;19.84;58.51;97070.03;10362124;28;20311;-21
2022/07/13 15:47:12;;;;;;;0.57;0.43;;;;;;;19.83;58.30;97066.63;10365794;28;20031;-21
2022/07/13 15:52:13;;;;;;;0.60;0.40;;;;;;;19.84;58.35;97063.22;10362997;28;20099;-20
2022/07/13 15:57:13;;;;;;;0.30;0.20;;;;;;;19.82;58.44;97058.97;10370387;28;20053;-21
2022/07/13 16:02:14;;;;;;;0.37;0.30;;;;;;;19.87;58.48;97054.75;10356878;28;20760;-20
2022/07/13 16:07:14;;;;;;;1.70;0.40;;;;;;;20.11;57.54;97057.31;10375021;28;20041;-20
2022/07/13 16:12:14;;;;;;;0.60;0.40;;;;;;;20.24;57.38;97053.91;10371880;28;20047;-20
2022/07/13 16:17:15;;;;;;;0.30;0.30;;;;;;;20.14;57.68;97049.69;10365410;28;20037;-20
2022/07/13 16:22:15;;;;;;;0.23;0.23;;;;;;;19.99;58.05;97047.13;10371807;28;20044;-21
2022/07/13 16:27:15;;;;;;;0.30;0.30;;;;;;;19.93;58.24;97042.06;10367097;28;20044;-20
2022/07/13 16:32:16;;;;;;;0.93;0.43;;;;;;;19.90;58.21;97039.50;10369276;28;20397;-20
2022/07/13 16:37:16;;;;;;;0.28;0.28;;;;;;;19.88;58.32;97038.66;10370117;28;20280;-20
2022/07/13 16:42:17;;;;;;;0.10;0.10;;;;;;;19.87;58.27;97036.97;10368492;28;20040;-21
2022/07/13 16:47:17;;;;;;;0.60;0.40;;;;;;;19.87;58.20;97039.50;10363627;28;20369;-20
2022/07/13 16:52:20;;;;;;;0.22;0.22;;;;;;;19.85;58.27;97036.13;10369747;28;20725;-20
2022/07/13 16:57:22;;;;;;;1.02;0.30;;;;;;;19.86;58.35;97045.44;10358776;28;20552;-20
2022/07/13 17:02:23;;;;;;;0.40;0.30;;;;;;;20.01;57.89;97042.91;10360382;28;20097;-20
2022/07/13 17:07:24;;;;;;;0.45;0.40;;;;;;;20.18;57.73;97043.75;10372742;28;20181;-20
2022/07/13 17:12:24;;;;;;;1.48;0.32;;;;;;;20.21;57.30;97039.53;10374053;28;20573;-20
2022/07/13 17:17:25;;;;;;;0.70;0.30;;;;;;;20.05;57.84;97042.06;10364482;28;20057;-20
2022/07/13 17:22:25;;;;;;;0.30;0.30;;;;;;;19.96;57.86;97042.06;10363404;28;20809;-20
2022/07/13 17:27:26;;;;;;;0.40;0.30;;;;;;;19.94;58.17;97046.28;10368355;28;20125;-20
2022/07/13 17:32:26;;;;;;;0.22;0.22;;;;;;;19.69;58.05;97009.03;10371067;28;20514;-22
2022/07/13 17:37:27;;;;;;;0.70;0.40;;;;;;;19.91;58.29;97049.69;10364784;28;20038;-20
2022/07/13 17:42:28;;;;;;;1.20;0.38;;;;;;;19.88;58.31;97043.75;10370195;28;20477;-20
2022/07/13 17:47:28;;;;;;;2.47;0.30;;;;;;;19.88;58.11;97048.81;10355685;28;20147;-20
2022/07/13 17:52:29;;;;;;;3.10;0.30;;;;;;;19.91;58.24;97048.84;10366698;28;20583;-20
2022/07/13 17:57:29;;;;;;;9.32;0.98;;;;;;;19.93;58.97;97052.22;10368715;28;20451;-20
2022/07/13 18:02:31;;;;;;;9.50;0.90;;;;;;;20.20;59.00;97067.47;10352119;28;20025;-20
2022/07/13 18:07:31;;;;;;;2.28;0.50;;;;;;;20.34;57.84;97065.78;10366924;28;20037;-21
2022/07/13 18:12:32;;;;;;;2.40;0.40;;;;;;;20.17;57.76;97063.25;10371922;28;20507;-21
2022/07/13 18:17:32;;;;;;;5.28;0.40;;;;;;;20.13;58.56;97060.72;10359062;28;20051;-20
2022/07/13 18:22:33;;;;;;;1.70;0.60;;;;;;;20.19;59.25;97065.78;10365553;28;20113;-20
2022/07/13 18:27:34;;;;;;;3.55;0.70;;;;;;;20.19;59.23;97056.44;10359073;28;20319;-21
2022/07/13 18:32:36;;;;;;;1.73;0.85;;;;;;;20.17;59.15;97067.50;10358829;28;20038;-20
2022/07/13 18:37:39;;;;;;;2.95;0.50;;;;;;;20.19;58.93;97065.78;10354767;28;20436;-20
2022/07/13 18:42:39;;;;;;;0.75;0.30;;;;;;;20.07;58.29;97020.03;10356688;28;20041;-21
2022/07/13 18:47:40;;;;;;;4.23;0.53;;;;;;;20.23;58.15;97042.03;10356766;28;20034;-20
2022/07/13 18:52:40;;;;;;;0.37;0.30;;;;;;;20.16;58.27;97010.72;10362003;28;20052;-20
2022/07/13 18:57:40;;;;;;;3.03;0.63;;;;;;;20.37;59.17;97015.75;10367791;28;20535;-21
2022/07/13 19:02:41;;;;;;;1.93;0.50;;;;;;;20.42;57.69;96997.94;10372316;28;20034;-21
2022/07/13 19:07:42;;;;;;;2.17;0.70;;;;;;;20.31;57.71;97009.81;10370607;28;20298;-20
2022/07/13 19:12:43;;;;;;;0.30;0.30;;;;;;;20.28;57.90;97030.19;10368429;28;20030;-20
2022/07/13 19:17:43;;;;;;;2.83;0.30;;;;;;;20.27;57.76;97059.84;10366550;28;20044;-21
2022/07/13 19:22:44;;;;;;;0.93;0.40;;;;;;;20.23;57.94;97060.69;10370927;28;20083;-20
2022/07/13 19:27:50;;;;;;;0.70;0.40;;;;;;;20.25;58.12;97070.88;10367769;28;20044;-21
2022/07/13 19:32:50;;;;;;;1.27;0.43;;;;;;;20.18;57.83;97074.28;10363534;28;20042;-21
2022/07/13 19:37:51;;;;;;;2.83;0.60;;;;;;;20.26;58.31;97082.75;10376895;28;20044;-20
2022/07/13 19:42:51;;;;;;;0.97;0.60;;;;;;;20.42;59.13;97088.66;10365545;28;20057;-20
2022/07/13 19:47:51;;;;;;;0.73;0.43;;;;;;;20.38;57.65;97103.91;10370221;28;20292;-21
2022/07/13 19:52:52;;;;;;;0.40;0.37;;;;;;;20.31;57.89;97114.06;10368749;28;20315;-20
2022/07/13 19:57:52;;;;;;;2.67;0.40;;;;;;;20.25;58.13;97116.66;10373709;28;20281;-21
2022/07/13 20:02:54;;;;;;;0.80;0.40;;;;;;;20.24;57.96;97120.00;10369370;28;20029;-20
2022/07/13 20:07:54;;;;;;;2.25;0.40;;;;;;;20.23;57.95;97115.78;10371199;28;20131;-20
2022/07/13 20:12:54;;;;;;;0.45;0.40;;;;;;;20.20;58.05;97114.09;10363619;28;20052;-21
2022/07/13 20:17:55;;;;;;;0.67;0.30;;;;;;;20.20;58.00;97109.03;10364795;28;20034;-21
2022/07/13 20:22:55;;;;;;;0.63;0.40;;;;;;;20.18;58.22;97085.28;10368342;28;20471;-20
2022/07/13 20:27:55;;;;;;;1.90;0.50;;;;;;;20.35;59.17;97080.19;10369104;28;20608;-21
2022/07/13 20:32:56;;;;;;;1.17;0.63;;;;;;;20.47;58.99;97074.19;10359093;28;20103;-20
2022/07/13 20:37:56;;;;;;;1.27;0.40;;;;;;;20.35;58.01;97103.06;10368717;28;20026;-20
2022/07/13 20:42:57;;;;;;;0.50;0.40;;;;;;;20.31;58.10;97126.78;10365397;28;20060;-21
2022/07/13 20:47:57;;;;;;;2.42;0.43;;;;;;;20.26;58.04;97125.97;10370080;28;20296;-21
2022/07/13 20:52:57;;;;;;;0.77;0.33;;;;;;;20.22;58.11;97116.63;10376470;28;20492;-20
2022/07/13 20:57:58;;;;;;;2.40;0.33;;;;;;;20.22;58.18;97111.53;10381522;28;20116;-21
2022/07/13 21:02:58;;;;;;;0.30;0.27;;;;;;;20.15;58.43;97097.13;10369674;28;20053;-21
2022/07/13 21:08:00;;;;;;;1.27;0.50;;;;;;;20.18;58.25;97099.69;10377814;28;20030;-21
2022/07/13 21:13:00;;;;;;;0.30;0.20;;;;;;;20.17;58.14;97072.59;10378225;28;20276;-21
2022/07/13 21:18:01;;;;;;;1.23;0.52;;;;;;;20.36;58.91;97080.16;10374869;28;20029;-19
2022/07/13 21:23:01;;;;;;;0.32;0.30;;;;;;;20.48;59.01;97095.41;10376194;28;20096;-20
2022/07/13 21:28:02;;;;;;;0.60;0.20;;;;;;;20.32;58.09;97103.91;10362416;28;20286;-23
2022/07/13 21:33:03;;;;;;;0.50;0.40;;;;;;;20.21;57.93;97104.75;10370569;28;20292;-21
2022/07/13 21:38:03;;;;;;;0.45;0.38;;;;;;;20.23;58.01;97110.69;10342209;28;20029;-21
2022/07/13 21:43:04;;;;;;;0.33;0.20;;;;;;;20.20;58.44;97098.00;10357047;28;20037;-21
2022/07/13 21:48:04;;;;;;;1.13;0.40;;;;;;;20.19;58.30;97136.97;10354429;28;20069;-21
2022/07/13 21:53:07;;;;;;;0.40;0.20;;;;;;;20.16;58.35;97114.09;10354023;28;20072;-20
2022/07/13 21:58:08;;;;;;;0.52;0.28;;;;;;;20.15;58.43;97092.91;10351481;28;20037;-21
2022/07/13 22:03:08;;;;;;;0.32;0.20;;;;;;;20.16;58.30;97116.63;10354436;28;20045;-21
2022/07/13 22:08:08;;;;;;;1.70;0.50;;;;;;;20.31;59.20;97116.63;10370264;28;20400;-21
2022/07/13 22:13:47;;;;;;;0.93;0.50;;;;;;;20.49;58.97;97127.63;10363728;28;20292;-21
2022/07/13 22:19:25;;;;;;;1.25;0.55;;;;;;;20.38;58.03;97114.09;10366399;28;20034;-21
2022/07/13 22:25:03;;;;;;;2.00;0.20;;;;;;;20.26;57.99;97114.09;10367250;28;20038;-20
2022/07/13 22:30:41;;;;;;;0.65;0.40;;;;;;;20.18;58.29;97085.28;10375023;28;20476;-21
2022/07/13 22:36:19;;;;;;;0.32;0.20;;;;;;;20.16;58.32;97097.16;10376938;28;20415;-20
2022/07/13 22:41:57;;;;;;;2.17;0.52;;;;;;;20.15;58.41;97075.13;10375023;28;20492;-20
2022/07/13 22:47:34;;;;;;;1.60;0.40;;;;;;;20.16;58.38;97107.31;10372160;28;20030;-21
2022/07/13 22:53:12;;;;;;;0.60;0.40;;;;;;;20.15;58.33;97135.28;10383922;28;20088;-20
2022/07/13 22:58:50;;;;;;;0.88;0.30;;;;;;;20.17;58.83;97123.44;10371400;28;20037;-20
2022/07/13 23:04:28;;;;;;;2.63;0.50;;;;;;;20.44;59.16;97129.31;10378091;28;20033;-21
2022/07/13 23:10:06;;;;;;;0.77;0.30;;;;;;;20.43;57.85;97130.16;10370225;28;20026;-20
2022/07/13 23:15:44;;;;;;;0.20;0.17;;;;;;;20.28;57.89;97126.81;10369545;28;20073;-21
2022/07/13 23:21:21;;;;;;;1.38;0.35;;;;;;;20.15;58.13;97102.22;10373638;28;20424;-20
2022/07/13 23:26:59;;;;;;;0.25;0.25;;;;;;;20.17;58.11;97092.91;10377454;28;20046;-20
2022/07/13 23:32:05;;;;;;;0.20;0.20;;;;;;;20.17;58.59;97092.91;10370535;28;20290;-20
2022/07/13 23:37:09;;;;;;;0.75;0.52;;;;;;;20.17;58.32;97100.56;10370322;28;20061;-21
2022/07/13 23:42:09;;;;;;;0.43;0.30;;;;;;;20.16;58.44;97112.41;10370306;28;20465;-20